Time,TemperatureF,DewpointF,PressureIn,WindDirection,WindDirectionDegrees,WindSpeedMPH,WindSpeedGustMPH,Humidity,HourlyPrecipIn,Conditions,Clouds,dailyrainin,SoftwareType,DateUTC
2013-08-23 00:06:00,78.8,78.2,29.85,South,180,6.3,-999.0,98,-99.99,,,0.00,Acu-Link.com,2013-08-23 04:06:00,
2013-08-23 00:22:00,78.8,78.2,29.86,South,180,4.7,-999.0,98,-99.99,,,0.00,Acu-Link.com,2013-08-23 04:22:00,
2013-08-23 00:37:00,78.6,78.0,29.85,South,180,5.8,-999.0,98,-99.99,,,0.00,Acu-Link.com,2013-08-23 04:37:00,
2013-08-23 00:52:00,78.6,78.0,29.85,South,180,6.8,-999.0,98,-99.99,,,0.00,Acu-Link.com,2013-08-23 04:52:00,
2013-08-23 01:07:00,78.8,78.2,29.84,South,180,5.8,-999.0,98,-99.99,,,0.00,Acu-Link.com,2013-08-23 05:07:00,
2013-08-23 01:23:00,79.0,78.4,29.84,South,180,4.2,-999.0,98,-99.99,,,0.00,Acu-Link.com,2013-08-23 05:23:00,
2013-08-23 01:38:00,78.8,78.2,29.84,SSW,202,3.2,-999.0,98,-99.99,,,0.00,Acu-Link.com,2013-08-23 05:38:00,
2013-08-23 01:53:00,78.8,78.2,29.83,ESE,112,3.7,-999.0,98,-99.99,,,0.00,Acu-Link.com,2013-08-23 05:53:00,
2013-08-23 02:08:00,79.3,78.7,29.83,South,180,4.2,-999.0,98,-99.99,,,0.00,Acu-Link.com,2013-08-23 06:08:00,
2013-08-23 02:24:00,79.3,78.7,29.82,ESE,112,3.2,-999.0,98,-99.99,,,0.00,Acu-Link.com,2013-08-23 06:24:00,
2013-08-23 02:39:00,79.3,78.7,29.82,SSE,157,5.3,-999.0,98,-99.99,,,0.00,Acu-Link.com,2013-08-23 06:39:00,
2013-08-23 02:54:00,78.8,78.2,29.81,ESE,112,5.3,-999.0,98,-99.99,,,0.00,Acu-Link.com,2013-08-23 06:54:00,
2013-08-23 03:10:00,78.6,78.0,29.81,SE,135,4.7,-999.0,98,-99.99,,,0.00,Acu-Link.com,2013-08-23 07:10:00,
2013-08-23 03:25:00,78.6,78.0,29.80,ESE,112,2.7,-999.0,98,-99.99,,,0.00,Acu-Link.com,2013-08-23 07:25:00,
2013-08-23 03:40:00,78.6,78.0,29.80,ESE,112,3.7,-999.0,98,-99.99,,,0.00,Acu-Link.com,2013-08-23 07:40:00,
2013-08-23 03:55:00,78.4,77.8,29.80,SSE,157,3.2,-999.0,98,-99.99,,,0.00,Acu-Link.com,2013-08-23 07:55:00,
2013-08-23 04:10:00,78.4,77.8,29.80,South,180,3.7,-999.0,98,-99.99,,,0.00,Acu-Link.com,2013-08-23 08:10:00,
2013-08-23 04:25:00,78.4,77.8,29.80,South,180,2.7,-999.0,98,-99.99,,,0.00,Acu-Link.com,2013-08-23 08:25:00,
2013-08-23 04:41:00,78.4,77.8,29.80,SSE,157,3.2,-999.0,98,-99.99,,,0.00,Acu-Link.com,2013-08-23 08:41:00,
2013-08-23 04:56:00,78.6,78.0,29.80,South,180,3.2,-999.0,98,-99.99,,,0.00,Acu-Link.com,2013-08-23 08:56:00,
2013-08-23 05:11:00,78.6,78.0,29.79,SSE,157,3.7,-999.0,98,-99.99,,,0.00,Acu-Link.com,2013-08-23 09:11:00,
2013-08-23 05:26:00,78.4,77.8,29.79,SE,135,3.7,-999.0,98,-99.99,,,0.00,Acu-Link.com,2013-08-23 09:26:00,
2013-08-23 05:41:00,78.6,78.0,29.80,SE,135,3.2,-999.0,98,-99.99,,,0.00,Acu-Link.com,2013-08-23 09:41:00,
2013-08-23 05:56:00,78.6,78.0,29.80,East,90,3.2,-999.0,98,-99.99,,,0.00,Acu-Link.com,2013-08-23 09:56:00,
2013-08-23 06:11:00,78.4,77.8,29.80,South,180,3.7,-999.0,98,-99.99,,,0.00,Acu-Link.com,2013-08-23 10:11:00,
2013-08-23 06:27:00,78.4,77.8,29.81,South,180,2.2,-999.0,98,-99.99,,,0.00,Acu-Link.com,2013-08-23 10:27:00,
2013-08-23 06:42:00,78.3,77.7,29.81,South,180,3.7,-999.0,98,-99.99,,,0.00,Acu-Link.com,2013-08-23 10:42:00,
2013-08-23 06:57:00,78.3,77.7,29.81,South,180,3.7,-999.0,98,-99.99,,,0.00,Acu-Link.com,2013-08-23 10:57:00,
2013-08-23 07:12:00,78.3,77.7,29.81,SSE,157,3.7,-999.0,98,-99.99,,,0.00,Acu-Link.com,2013-08-23 11:12:00,
2013-08-23 07:27:00,78.8,78.2,29.82,South,180,3.7,-999.0,98,-99.99,,,0.00,Acu-Link.com,2013-08-23 11:27:00,
2013-08-23 07:43:00,79.7,79.1,29.82,SSE,157,3.2,-999.0,98,-99.99,,,0.00,Acu-Link.com,2013-08-23 11:43:00,
2013-08-23 07:58:00,80.1,79.5,29.82,SSE,157,3.7,-999.0,98,-99.99,,,0.00,Acu-Link.com,2013-08-23 11:58:00,
2013-08-23 08:13:00,80.8,80.2,29.83,South,180,3.7,-999.0,98,-99.99,,,0.00,Acu-Link.com,2013-08-23 12:13:00,
2013-08-23 08:28:00,80.8,80.2,29.84,SSE,157,5.3,-999.0,98,-99.99,,,0.00,Acu-Link.com,2013-08-23 12:28:00,
2013-08-23 08:43:00,81.0,80.4,29.84,ESE,112,4.7,-999.0,98,-99.99,,,0.00,Acu-Link.com,2013-08-23 12:43:00,
2013-08-23 08:58:00,81.5,80.9,29.83,SSE,157,3.7,-999.0,98,-99.99,,,0.00,Acu-Link.com,2013-08-23 12:58:00,
2013-08-23 09:13:00,82.4,81.8,29.83,SSE,157,4.2,-999.0,98,-99.99,,,0.00,Acu-Link.com,2013-08-23 13:13:00,
2013-08-23 09:29:00,82.6,82.0,29.84,SSE,157,3.7,-999.0,98,-99.99,,,0.00,Acu-Link.com,2013-08-23 13:29:00,
2013-08-23 09:44:00,83.1,82.5,29.84,South,180,3.7,-999.0,98,-99.99,,,0.00,Acu-Link.com,2013-08-23 13:44:00,
2013-08-23 09:59:00,84.0,83.4,29.84,SSE,157,4.7,-999.0,98,-99.99,,,0.00,Acu-Link.com,2013-08-23 13:59:00,
2013-08-23 10:14:00,84.6,84.0,29.85,South,180,5.3,-999.0,98,-99.99,,,0.00,Acu-Link.com,2013-08-23 14:14:00,
2013-08-23 10:30:00,85.5,84.9,29.85,SSW,202,4.2,-999.0,98,-99.99,,,0.00,Acu-Link.com,2013-08-23 14:30:00,
2013-08-23 10:45:00,85.1,84.5,29.86,ESE,112,2.2,-999.0,98,-99.99,,,0.00,Acu-Link.com,2013-08-23 14:45:00,
2013-08-23 11:00:00,86.7,86.1,29.84,SE,135,3.7,-999.0,98,-99.99,,,0.00,Acu-Link.com,2013-08-23 15:00:00,
2013-08-23 11:15:00,87.1,86.5,29.85,SSE,157,4.2,-999.0,98,-99.99,,,0.00,Acu-Link.com,2013-08-23 15:15:00,
2013-08-23 11:30:00,87.4,86.8,29.86,WSW,247,2.7,-999.0,98,-99.99,,,0.00,Acu-Link.com,2013-08-23 15:30:00,
2013-08-23 11:46:00,87.1,86.5,29.85,ESE,112,2.7,-999.0,98,-99.99,,,0.00,Acu-Link.com,2013-08-23 15:46:00,
2013-08-23 12:01:00,89.2,88.2,29.84,West,270,1.1,-999.0,97,-99.99,,,0.00,Acu-Link.com,2013-08-23 16:01:00,
2013-08-23 12:16:00,89.6,87.6,29.83,ESE,112,3.7,-999.0,94,-99.99,,,0.00,Acu-Link.com,2013-08-23 16:16:00,
2013-08-23 12:31:00,89.2,88.2,29.83,SSE,157,5.8,-999.0,97,-99.99,,,0.00,Acu-Link.com,2013-08-23 16:31:00,
2013-08-23 12:46:00,90.0,86.7,29.83,South,180,6.3,-999.0,90,-99.99,,,0.00,Acu-Link.com,2013-08-23 16:46:00,
2013-08-23 13:02:00,89.2,87.9,29.82,SSE,157,5.3,-999.0,96,-99.99,,,0.00,Acu-Link.com,2013-08-23 17:02:00,
2013-08-23 13:17:00,91.2,86.4,29.82,East,90,1.7,-999.0,86,-99.99,,,0.00,Acu-Link.com,2013-08-23 17:17:00,
2013-08-23 13:32:00,90.9,83.1,29.82,East,90,3.7,-999.0,78,-99.99,,,0.00,Acu-Link.com,2013-08-23 17:32:00,
2013-08-23 13:47:00,91.2,82.5,29.82,ESE,112,2.2,-999.0,76,-99.99,,,0.00,Acu-Link.com,2013-08-23 17:47:00,
2013-08-23 14:02:00,90.3,82.9,29.81,South,180,4.2,-999.0,79,-99.99,,,0.00,Acu-Link.com,2013-08-23 18:02:00,
2013-08-23 14:18:00,91.4,83.5,29.79,SSW,202,0.0,-999.0,78,-99.99,,,0.00,Acu-Link.com,2013-08-23 18:18:00,
2013-08-23 14:33:00,92.1,81.7,29.78,South,180,3.7,-999.0,72,-99.99,,,0.00,Acu-Link.com,2013-08-23 18:33:00,
2013-08-23 14:48:00,94.1,81.4,29.78,East,90,0.0,-999.0,67,-99.99,,,0.00,Acu-Link.com,2013-08-23 18:48:00,
2013-08-23 15:03:00,92.5,79.4,29.77,South,180,3.2,-999.0,66,-99.99,,,0.00,Acu-Link.com,2013-08-23 19:03:00,
2013-08-23 15:19:00,92.5,80.4,29.78,South,180,2.7,-999.0,68,-99.99,,,0.00,Acu-Link.com,2013-08-23 19:19:00,
2013-08-23 15:34:00,93.2,80.6,29.78,SW,225,3.2,-999.0,67,-99.99,,,0.00,Acu-Link.com,2013-08-23 19:34:00,
2013-08-23 15:49:00,93.4,80.3,29.78,SSW,202,3.7,-999.0,66,-99.99,,,0.00,Acu-Link.com,2013-08-23 19:49:00,
2013-08-23 16:04:00,88.0,81.0,29.79,SSE,157,13.0,-999.0,80,-99.99,,,0.00,Acu-Link.com,2013-08-23 20:04:00,
2013-08-23 16:19:00,83.1,82.5,29.77,South,180,18.6,-999.0,98,-99.99,,,0.00,Acu-Link.com,2013-08-23 20:19:00,
2013-08-23 16:34:00,81.5,80.9,29.78,SSE,157,13.0,-999.0,98,-99.99,,,0.00,Acu-Link.com,2013-08-23 20:34:00,
2013-08-23 16:50:00,82.2,81.6,29.79,South,180,7.8,-999.0,98,-99.99,,,0.00,Acu-Link.com,2013-08-23 20:50:00,
2013-08-23 17:05:00,82.9,82.3,29.80,SSE,157,7.8,-999.0,98,-99.99,,,0.00,Acu-Link.com,2013-08-23 21:05:00,
2013-08-23 17:20:00,83.1,82.5,29.79,South,180,7.8,-999.0,98,-99.99,,,0.00,Acu-Link.com,2013-08-23 21:20:00,
2013-08-23 17:35:00,83.8,83.2,29.80,SSE,157,7.8,-999.0,98,-99.99,,,0.00,Acu-Link.com,2013-08-23 21:35:00,
2013-08-23 17:50:00,83.1,82.5,29.79,ESE,112,7.8,-999.0,98,-99.99,,,0.00,Acu-Link.com,2013-08-23 21:50:00,
2013-08-23 18:05:00,82.2,81.6,29.80,ESE,112,6.8,-999.0,98,-99.99,,,0.00,Acu-Link.com,2013-08-23 22:05:00,
2013-08-23 18:21:00,80.8,80.2,29.82,ESE,112,8.3,-999.0,98,-99.99,,,0.00,Acu-Link.com,2013-08-23 22:21:00,
2013-08-23 18:36:00,80.2,79.6,29.82,ESE,112,7.8,-999.0,98,-99.99,,,0.00,Acu-Link.com,2013-08-23 22:36:00,
2013-08-23 18:51:00,79.0,78.4,29.82,ESE,112,10.9,-999.0,98,-99.99,,,0.00,Acu-Link.com,2013-08-23 22:51:00,
2013-08-23 19:06:00,77.4,76.8,29.82,East,90,4.7,-999.0,98,-99.99,,,0.01,Acu-Link.com,2013-08-23 23:06:00,
2013-08-23 19:21:00,76.8,76.2,29.82,East,90,12.5,-999.0,98,-99.99,,,0.01,Acu-Link.com,2013-08-23 23:21:00,
2013-08-23 19:37:00,76.5,75.9,29.83,ESE,112,9.9,-999.0,98,-99.99,,,0.01,Acu-Link.com,2013-08-23 23:37:00,
2013-08-23 19:52:00,76.3,75.7,29.84,East,90,6.3,-999.0,98,-99.99,,,0.01,Acu-Link.com,2013-08-23 23:52:00,
2013-08-23 20:07:00,76.3,75.7,29.83,East,90,8.3,-999.0,98,-99.99,,,0.01,Acu-Link.com,2013-08-24 00:07:00,
2013-08-23 20:22:00,76.3,75.7,29.84,South,180,4.2,-999.0,98,-99.99,,,0.01,Acu-Link.com,2013-08-24 00:22:00,
2013-08-23 20:37:00,76.3,75.7,29.84,ENE,67,5.3,-999.0,98,-99.99,,,0.02,Acu-Link.com,2013-08-24 00:37:00,
2013-08-23 20:53:00,76.1,75.5,29.84,ENE,67,6.3,-999.0,98,-99.99,,,0.09,Acu-Link.com,2013-08-24 00:53:00,
2013-08-23 21:08:00,76.1,75.5,29.84,ESE,112,5.3,-999.0,98,-99.99,,,0.09,Acu-Link.com,2013-08-24 01:08:00,
2013-08-23 21:23:00,76.1,75.5,29.84,ESE,112,4.7,-999.0,98,-99.99,,,0.09,Acu-Link.com,2013-08-24 01:23:00,
2013-08-23 21:38:00,76.3,75.7,29.85,ESE,112,2.7,-999.0,98,-99.99,,,0.10,Acu-Link.com,2013-08-24 01:38:00,
2013-08-23 21:54:00,76.5,75.9,29.85,South,180,6.8,-999.0,98,-99.99,,,0.10,Acu-Link.com,2013-08-24 01:54:00,
2013-08-23 22:09:00,76.5,75.9,29.84,South,180,4.7,-999.0,98,-99.99,,,0.10,Acu-Link.com,2013-08-24 02:09:00,
2013-08-23 22:24:00,76.5,75.9,29.85,West,270,2.2,-999.0,98,-99.99,,,0.10,Acu-Link.com,2013-08-24 02:24:00,
2013-08-23 22:39:00,76.3,75.7,29.85,West,270,1.7,-999.0,98,-99.99,,,0.10,Acu-Link.com,2013-08-24 02:39:00,
2013-08-23 22:54:00,76.3,75.7,29.85,North,0,0.0,-999.0,98,-99.99,,,0.10,Acu-Link.com,2013-08-24 02:54:00,
2013-08-23 23:10:00,76.3,75.7,29.85,North,0,0.0,-999.0,98,-99.99,,,0.10,Acu-Link.com,2013-08-24 03:10:00,
2013-08-23 23:25:00,76.1,75.5,29.85,North,0,0.0,-999.0,98,-99.99,,,0.10,Acu-Link.com,2013-08-24 03:25:00,
2013-08-23 23:40:00,77.0,76.4,29.84,South,180,2.7,-999.0,98,-99.99,,,0.10,Acu-Link.com,2013-08-24 03:40:00,
2013-08-23 23:55:00,77.4,76.8,29.85,SW,225,1.1,-999.0,98,-99.99,,,0.10,Acu-Link.com,2013-08-24 03:55:00,